createdAt,value
2019-02-19T00:02:26.807Z,88.10
2019-02-19T00:05:13.045Z,88.10
2019-02-19T00:07:59.251Z,88.60
2019-02-19T00:10:44.571Z,88.00
2019-02-19T00:13:30.175Z,88.00
2019-02-19T00:16:15.421Z,88.00
2019-02-19T00:19:00.492Z,88.00
2019-02-19T00:21:45.905Z,88.10
2019-02-19T00:24:31.074Z,88.20
2019-02-19T00:27:16.251Z,88.30
2019-02-19T00:30:01.460Z,87.80
2019-02-19T00:32:46.738Z,87.40
2019-02-19T00:35:32.015Z,87.00
2019-02-19T00:38:17.048Z,87.70
2019-02-19T00:41:03.457Z,87.80
2019-02-19T00:43:48.703Z,87.90
2019-02-19T00:46:35.436Z,88.10
2019-02-19T00:49:22.686Z,88.30
2019-02-19T00:52:07.774Z,88.10
2019-02-19T00:54:53.345Z,88.30
2019-02-19T00:57:38.419Z,87.80
2019-02-19T01:00:24.623Z,87.90
2019-02-19T01:03:10.180Z,88.10
2019-02-19T01:05:55.261Z,88.10
2019-02-19T01:08:40.715Z,88.10
2019-02-19T01:11:26.115Z,88.30
2019-02-19T01:14:11.247Z,88.00
2019-02-19T01:16:56.381Z,88.00
2019-02-19T01:19:41.563Z,87.80
2019-02-19T01:22:27.410Z,87.80
2019-02-19T01:25:12.678Z,88.20
2019-02-19T01:27:57.550Z,88.20
2019-02-19T01:30:42.854Z,88.00
2019-02-19T01:33:27.960Z,87.70
2019-02-19T01:36:13.352Z,87.70
2019-02-19T01:38:58.880Z,87.70
2019-02-19T01:41:43.815Z,87.80
2019-02-19T01:44:30.270Z,87.80
2019-02-19T01:47:15.518Z,87.40
2019-02-19T01:50:00.772Z,87.20
2019-02-19T01:52:45.999Z,87.30
2019-02-19T01:55:31.302Z,86.90
2019-02-19T01:58:16.793Z,86.60
2019-02-19T02:01:02.375Z,86.50
2019-02-19T02:03:47.971Z,86.70
2019-02-19T02:06:32.946Z,87.00
2019-02-19T02:09:18.195Z,87.00
2019-02-19T02:12:04.124Z,86.70
2019-02-19T02:14:49.259Z,86.70
2019-02-19T02:17:34.480Z,86.90
2019-02-19T02:20:21.589Z,87.30
2019-02-19T02:23:06.878Z,87.50
2019-02-19T02:25:51.941Z,87.50
2019-02-19T02:28:37.266Z,87.40
2019-02-19T02:31:22.370Z,87.30
2019-02-19T02:34:07.657Z,87.10
2019-02-19T02:36:53.109Z,87.00
2019-02-19T02:39:38.498Z,87.20
2019-02-19T02:42:24.723Z,87.30
2019-02-19T02:45:09.841Z,87.30
2019-02-19T02:47:55.142Z,87.10
2019-02-19T02:50:40.727Z,87.00
2019-02-19T02:53:27.154Z,87.50
2019-02-19T02:56:12.716Z,87.10
2019-02-19T02:58:59.274Z,87.00
2019-02-19T03:01:44.643Z,87.20
2019-02-19T03:04:29.951Z,87.10
2019-02-19T03:07:26.238Z,87.00
2019-02-19T03:10:12.386Z,87.40
2019-02-19T03:12:57.710Z,86.60
2019-02-19T03:15:42.967Z,86.60
2019-02-19T03:18:28.215Z,86.20
2019-02-19T03:21:13.415Z,86.40
2019-02-19T03:24:00.410Z,86.80
2019-02-19T03:26:45.842Z,86.40
2019-02-19T03:29:31.091Z,86.50
2019-02-19T03:32:16.148Z,86.40
2019-02-19T03:35:01.329Z,86.10
2019-02-19T03:37:46.257Z,86.00
2019-02-19T03:40:31.925Z,86.60
2019-02-19T03:43:17.111Z,86.80
2019-02-19T03:46:11.489Z,86.90
2019-02-19T03:48:49.026Z,86.70
2019-02-19T03:51:34.835Z,86.70
2019-02-19T03:54:19.949Z,86.60
2019-02-19T03:57:07.183Z,86.90
2019-02-19T03:59:52.630Z,86.80
2019-02-19T04:02:37.869Z,86.60
2019-02-19T04:05:23.122Z,86.70
2019-02-19T04:08:08.187Z,85.80
2019-02-19T04:10:53.395Z,85.90
2019-02-19T04:13:38.800Z,86.20
2019-02-19T04:16:24.113Z,86.90
2019-02-19T04:19:09.513Z,87.70
2019-02-19T04:21:54.566Z,88.50
2019-02-19T04:24:39.858Z,88.10
2019-02-19T04:27:25.165Z,87.80
2019-02-19T04:30:10.511Z,87.60
2019-02-19T04:32:55.459Z,86.80
2019-02-19T04:35:40.955Z,86.40
2019-02-19T04:38:26.323Z,85.60
2019-02-19T04:41:11.277Z,85.40
2019-02-19T04:43:56.375Z,85.50
2019-02-19T04:46:41.715Z,85.50
2019-02-19T04:49:26.802Z,85.20
2019-02-19T04:52:11.772Z,85.70
2019-02-19T04:54:57.842Z,85.20
2019-02-19T04:57:43.245Z,85.30
2019-02-19T05:00:28.295Z,84.10
2019-02-19T05:03:14.009Z,83.80
2019-02-19T05:05:59.133Z,84.10
2019-02-19T05:08:44.723Z,83.70
2019-02-19T05:11:30.175Z,83.50
2019-02-19T05:14:15.565Z,83.40
2019-02-19T05:17:00.525Z,83.00
2019-02-19T05:19:45.654Z,82.90
2019-02-19T05:22:32.204Z,82.60
2019-02-19T05:25:17.251Z,82.20
2019-02-19T05:28:02.138Z,81.90
2019-02-19T05:30:47.382Z,81.40
2019-02-19T05:33:32.449Z,81.40
2019-02-19T05:36:17.306Z,80.90
2019-02-19T05:39:24.524Z,80.50
2019-02-19T05:42:10.034Z,80.50
2019-02-19T05:44:54.908Z,80.10
2019-02-19T05:47:39.886Z,80.00
2019-02-19T05:50:26.208Z,79.70
2019-02-19T05:53:11.566Z,80.00
2019-02-19T05:55:56.780Z,79.90
2019-02-19T05:58:42.084Z,79.80
2019-02-19T06:01:27.234Z,79.60
2019-02-19T06:04:14.747Z,79.60
2019-02-19T06:06:59.817Z,79.30
2019-02-19T06:09:45.250Z,79.30
2019-02-19T06:12:30.310Z,79.60
2019-02-19T06:15:15.493Z,79.30
2019-02-19T06:18:01.359Z,79.70
2019-02-19T06:20:47.377Z,79.40
2019-02-19T06:23:33.571Z,79.80
2019-02-19T06:26:18.789Z,79.50
2019-02-19T06:29:05.100Z,79.50
2019-02-19T06:31:51.318Z,79.30
2019-02-19T06:34:36.502Z,79.30
2019-02-19T06:37:22.354Z,79.10
2019-02-19T06:40:25.867Z,79.00
2019-02-19T06:43:10.930Z,79.40
2019-02-19T06:45:56.535Z,79.00
2019-02-19T06:48:41.384Z,78.70
2019-02-19T06:51:27.052Z,78.60
2019-02-19T06:54:12.890Z,78.50
2019-02-19T06:56:57.480Z,78.60
2019-02-19T06:59:42.308Z,78.50
2019-02-19T07:02:28.969Z,78.60
2019-02-19T07:05:15.687Z,78.10
2019-02-19T07:08:01.132Z,77.80
2019-02-19T07:10:46.618Z,77.90
2019-02-19T07:13:31.615Z,77.40
2019-02-19T07:16:16.901Z,77.10
2019-02-19T07:19:02.144Z,76.70
2019-02-19T07:21:48.597Z,76.20
2019-02-19T07:24:33.791Z,76.00
2019-02-19T07:27:19.328Z,76.00
2019-02-19T07:30:07.872Z,75.30
2019-02-19T07:32:53.116Z,75.10
2019-02-19T07:35:38.638Z,74.70
2019-02-19T07:38:23.691Z,74.50
2019-02-19T07:41:10.406Z,74.00
2019-02-19T07:43:57.774Z,73.60
2019-02-19T07:46:43.038Z,73.30
2019-02-19T07:49:30.338Z,72.60
2019-02-19T07:52:15.690Z,72.50
2019-02-19T07:55:00.942Z,72.20
2019-02-19T07:57:46.110Z,72.20
2019-02-19T08:00:31.918Z,71.80
2019-02-19T08:03:17.149Z,71.00
2019-02-19T08:06:02.629Z,71.10
2019-02-19T08:08:47.862Z,70.40
2019-02-19T08:11:33.658Z,69.80
2019-02-19T08:14:18.883Z,69.60
2019-02-19T08:17:05.301Z,69.20
2019-02-19T08:19:50.917Z,68.90
2019-02-19T08:22:37.242Z,67.90
2019-02-19T08:25:22.499Z,67.50
2019-02-19T08:28:07.798Z,67.60
2019-02-19T08:30:53.813Z,66.90
2019-02-19T08:33:39.234Z,65.30
2019-02-19T08:36:24.302Z,64.50
2019-02-19T08:39:09.745Z,63.50
2019-02-19T08:41:55.336Z,63.40
2019-02-19T08:44:40.115Z,63.00
2019-02-19T08:47:26.428Z,62.80
2019-02-19T08:50:11.543Z,62.10
2019-02-19T08:53:00.161Z,61.70
2019-02-19T08:55:45.074Z,60.80
2019-02-19T08:58:31.608Z,60.60
2019-02-19T09:01:17.259Z,60.70
2019-02-19T09:04:02.885Z,60.40
2019-02-19T09:06:49.225Z,59.90
2019-02-19T09:09:34.143Z,60.10
2019-02-19T09:12:19.421Z,60.00
2019-02-19T09:15:26.404Z,60.00
2019-02-19T09:18:11.577Z,59.80
2019-02-19T09:20:58.433Z,60.00
2019-02-19T09:23:43.634Z,60.20
2019-02-19T09:26:28.983Z,59.50
2019-02-19T09:29:14.203Z,59.60
2019-02-19T09:32:00.519Z,58.80
2019-02-19T09:34:46.696Z,57.80
2019-02-19T09:37:31.830Z,57.50
2019-02-19T09:40:17.321Z,57.60
2019-02-19T09:43:03.466Z,57.60
2019-02-19T09:45:51.994Z,57.80
2019-02-19T09:48:36.748Z,57.60
2019-02-19T09:51:22.830Z,57.20
2019-02-19T09:54:08.552Z,56.30
2019-02-19T09:56:53.512Z,56.10
2019-02-19T09:59:38.838Z,55.80
2019-02-19T10:02:24.224Z,55.70
2019-02-19T10:05:10.748Z,55.40
2019-02-19T10:07:55.992Z,55.50
2019-02-19T10:10:41.775Z,55.50
2019-02-19T10:13:28.476Z,54.80
2019-02-19T10:16:13.823Z,54.40
2019-02-19T10:18:58.887Z,54.80
2019-02-19T10:21:45.714Z,54.60
2019-02-19T10:24:31.231Z,54.80
2019-02-19T10:27:17.409Z,53.90
2019-02-19T10:30:08.259Z,54.10
2019-02-19T10:32:54.833Z,54.60
2019-02-19T10:35:39.971Z,54.80
2019-02-19T10:38:25.390Z,55.20
2019-02-19T10:41:10.730Z,55.10
2019-02-19T10:43:55.500Z,54.80
2019-02-19T10:46:40.801Z,54.70
2019-02-19T10:49:25.952Z,54.60
2019-02-19T10:52:11.436Z,55.30
2019-02-19T10:54:56.523Z,55.60
2019-02-19T10:57:41.973Z,57.00
2019-02-19T11:00:29.266Z,56.40
2019-02-19T11:03:14.765Z,56.10
2019-02-19T11:06:00.123Z,56.00
2019-02-19T11:08:47.031Z,56.10
2019-02-19T11:11:32.120Z,56.20
2019-02-19T11:14:17.299Z,56.40
2019-02-19T11:17:02.225Z,56.10
2019-02-19T11:19:47.321Z,55.90
2019-02-19T11:22:32.663Z,56.00
2019-02-19T11:25:20.061Z,56.20
2019-02-19T11:28:05.169Z,56.30
2019-02-19T11:30:50.473Z,56.20
2019-02-19T11:33:36.049Z,56.30
2019-02-19T11:36:21.432Z,56.40
2019-02-19T11:39:08.456Z,56.50
2019-02-19T11:41:53.446Z,56.00
2019-02-19T11:44:39.012Z,56.00
2019-02-19T11:47:26.612Z,55.80
2019-02-19T11:50:11.927Z,56.00
2019-02-19T11:52:56.812Z,56.00
2019-02-19T11:55:42.715Z,56.50
2019-02-19T11:58:27.854Z,56.00
2019-02-19T12:01:13.961Z,55.90
2019-02-19T12:04:01.414Z,56.00
2019-02-19T12:06:47.807Z,55.90
2019-02-19T12:09:33.325Z,56.00
2019-02-19T12:12:18.399Z,56.00
2019-02-19T12:15:07.283Z,56.10
2019-02-19T12:17:52.430Z,55.90
2019-02-19T12:20:37.947Z,55.80
2019-02-19T12:23:23.196Z,55.70
2019-02-19T12:26:08.188Z,56.10
2019-02-19T12:28:54.401Z,55.50
2019-02-19T12:31:40.568Z,55.80
2019-02-19T12:34:25.593Z,55.70
2019-02-19T12:37:11.483Z,55.40
2019-02-19T12:39:58.636Z,55.70
2019-02-19T12:42:43.913Z,56.10
2019-02-19T12:45:29.178Z,55.90
2019-02-19T12:48:14.334Z,56.20
2019-02-19T12:50:59.564Z,56.10
2019-02-19T12:53:47.740Z,56.40
2019-02-19T12:56:32.810Z,56.70
2019-02-19T12:59:17.839Z,56.40
2019-02-19T13:02:03.994Z,56.30
2019-02-19T13:04:51.176Z,56.70
2019-02-19T13:07:38.134Z,57.00
2019-02-19T13:10:24.129Z,56.80
2019-02-19T13:13:11.153Z,56.60
2019-02-19T13:15:56.525Z,56.70
2019-02-19T13:18:41.466Z,57.10
2019-02-19T13:21:28.115Z,56.80
2019-02-19T13:24:13.419Z,57.30
2019-02-19T13:26:58.501Z,57.90
2019-02-19T13:29:43.973Z,58.70
2019-02-19T13:32:29.037Z,59.30
2019-02-19T13:35:14.255Z,59.60
2019-02-19T13:37:59.365Z,59.40
2019-02-19T13:40:44.648Z,59.50
2019-02-19T13:43:30.811Z,60.10
2019-02-19T13:46:18.124Z,60.40
2019-02-19T13:49:02.916Z,60.30
2019-02-19T13:51:48.061Z,60.80
2019-02-19T13:54:33.301Z,61.30
2019-02-19T13:57:18.667Z,61.80
2019-02-19T14:00:06.692Z,61.80
2019-02-19T14:02:51.874Z,63.20
2019-02-19T14:05:37.019Z,63.20
2019-02-19T14:08:22.149Z,63.50
2019-02-19T14:11:07.590Z,63.50
2019-02-19T14:13:54.998Z,63.70
2019-02-19T14:16:45.006Z,63.90
2019-02-19T14:19:32.993Z,64.20
2019-02-19T14:22:38.826Z,64.30
2019-02-19T14:25:32.083Z,64.30
2019-02-19T14:28:19.254Z,64.40
2019-02-19T14:31:23.405Z,64.80
2019-02-19T14:34:10.624Z,65.10
2019-02-19T14:37:03.513Z,65.50
2019-02-19T14:39:54.739Z,66.30
2019-02-19T14:42:57.017Z,67.00
2019-02-19T14:45:46.574Z,67.40
2019-02-19T14:48:37.612Z,68.00
2019-02-19T14:51:28.447Z,68.30
2019-02-19T14:54:15.571Z,68.60
2019-02-19T14:57:19.901Z,69.10
2019-02-19T15:00:26.888Z,69.70
2019-02-19T15:03:17.299Z,70.30
2019-02-19T15:06:14.291Z,70.70
2019-02-19T15:09:18.869Z,70.80
2019-02-19T15:12:06.148Z,71.10
2019-02-19T15:15:06.215Z,71.00
2019-02-19T15:17:50.911Z,71.40
2019-02-19T15:20:40.167Z,71.70
2019-02-19T15:23:45.417Z,71.90
2019-02-19T15:26:32.884Z,72.20
2019-02-19T15:29:19.989Z,72.30
2019-02-19T15:32:18.992Z,72.20
2019-02-19T15:35:06.876Z,72.30
2019-02-19T15:38:10.741Z,72.40
2019-02-19T15:41:08.117Z,72.10
2019-02-19T15:43:55.859Z,71.80
2019-02-19T15:46:45.641Z,72.00
2019-02-19T15:49:47.573Z,72.30
2019-02-19T15:52:28.988Z,72.40
2019-02-19T15:55:16.137Z,72.60
2019-02-19T15:58:13.463Z,72.60
2019-02-19T16:01:18.172Z,72.50
2019-02-19T16:04:08.916Z,72.80
2019-02-19T16:07:14.511Z,72.90
2019-02-19T16:10:11.587Z,73.00
2019-02-19T16:13:14.941Z,73.00
2019-02-19T16:16:05.830Z,73.20
2019-02-19T16:18:58.192Z,73.20
2019-02-19T16:21:44.879Z,73.30
2019-02-19T16:24:48.895Z,73.50
2019-02-19T16:27:38.455Z,73.80
2019-02-19T16:30:44.935Z,73.80
2019-02-19T16:33:25.450Z,73.80
2019-02-19T16:36:33.692Z,73.80
2019-02-19T16:39:38.238Z,73.70
2019-02-19T16:42:43.854Z,74.00
2019-02-19T16:45:37.136Z,74.10
2019-02-19T16:48:26.942Z,74.50
2019-02-19T16:51:22.990Z,74.60
2019-02-19T16:54:10.045Z,74.50
2019-02-19T16:56:59.660Z,74.80
2019-02-19T16:59:51.224Z,74.80
2019-02-19T17:02:41.004Z,75.00
2019-02-19T17:05:28.220Z,75.00
2019-02-19T17:08:31.720Z,75.00
2019-02-19T17:11:23.389Z,75.20
2019-02-19T17:14:33.017Z,75.10
2019-02-19T17:17:32.550Z,75.10
2019-02-19T17:20:29.233Z,75.00
2019-02-19T17:23:26.794Z,75.10
2019-02-19T17:26:17.439Z,74.80
2019-02-19T17:29:07.689Z,74.80
2019-02-19T17:32:02.702Z,74.40
2019-02-19T17:34:55.911Z,74.10
2019-02-19T17:38:01.191Z,74.00
2019-02-19T17:40:48.625Z,74.10
2019-02-19T17:43:35.584Z,74.10
2019-02-19T17:46:31.949Z,74.30
2019-02-19T17:49:19.172Z,74.50
2019-02-19T17:52:06.941Z,74.60
2019-02-19T17:54:54.109Z,74.80
2019-02-19T17:57:50.594Z,75.10
2019-02-19T18:00:37.954Z,75.30
2019-02-19T18:03:30.384Z,75.80
2019-02-19T18:06:20.654Z,76.40
2019-02-19T18:09:08.067Z,76.80
2019-02-19T18:11:55.171Z,77.50
2019-02-19T18:15:00.961Z,77.90
2019-02-19T18:17:47.973Z,78.50
2019-02-19T18:20:36.156Z,79.00
2019-02-19T18:23:21.974Z,79.30
2019-02-19T18:26:07.336Z,79.50
2019-02-19T18:28:52.862Z,79.80
2019-02-19T18:31:37.945Z,80.00
2019-02-19T18:34:23.156Z,80.50
2019-02-19T18:37:08.784Z,80.30
2019-02-19T18:39:54.564Z,80.40
2019-02-19T18:42:39.529Z,80.40
2019-02-19T18:45:26.602Z,80.40
2019-02-19T18:48:12.188Z,80.50
2019-02-19T18:50:58.476Z,80.80
2019-02-19T18:53:43.863Z,80.60
2019-02-19T18:56:29.082Z,80.50
2019-02-19T18:59:14.404Z,80.70
2019-02-19T19:01:59.637Z,80.50
2019-02-19T19:04:45.807Z,80.50
2019-02-19T19:07:30.915Z,80.50
2019-02-19T19:10:16.303Z,80.50
2019-02-19T19:13:01.702Z,80.60
2019-02-19T19:15:46.932Z,80.50
2019-02-19T19:18:32.162Z,80.70
2019-02-19T19:21:17.706Z,80.70
2019-02-19T19:24:02.818Z,80.60
2019-02-19T19:26:48.324Z,80.50
2019-02-19T19:29:33.583Z,80.60
2019-02-19T19:32:18.661Z,80.70
2019-02-19T19:35:06.579Z,80.60
2019-02-19T19:37:51.857Z,80.90
2019-02-19T19:40:37.575Z,80.70
2019-02-19T19:43:22.817Z,80.60
2019-02-19T19:46:08.147Z,80.50
2019-02-19T19:48:53.353Z,80.40
2019-02-19T19:51:38.988Z,80.40
2019-02-19T19:54:24.473Z,80.30
2019-02-19T19:57:09.971Z,80.00
2019-02-19T19:59:55.425Z,79.30
2019-02-19T20:02:40.823Z,79.60
2019-02-19T20:05:26.026Z,79.60
2019-02-19T20:08:11.134Z,79.40
2019-02-19T20:10:56.294Z,79.30
2019-02-19T20:13:41.824Z,79.10
2019-02-19T20:16:27.020Z,79.00
2019-02-19T20:19:12.633Z,78.90
2019-02-19T20:22:00.973Z,78.80
2019-02-19T20:24:46.128Z,78.80
2019-02-19T20:27:31.435Z,78.60
2019-02-19T20:30:16.595Z,78.50
2019-02-19T20:33:01.425Z,78.40
2019-02-19T20:35:46.596Z,78.50
2019-02-19T20:38:31.593Z,78.50
2019-02-19T20:41:17.252Z,78.40
2019-02-19T20:44:02.677Z,78.10
2019-02-19T20:46:48.452Z,78.00
2019-02-19T20:49:33.887Z,78.00
2019-02-19T20:52:19.079Z,78.00
2019-02-19T20:55:10.341Z,78.10
2019-02-19T20:57:55.759Z,78.00
2019-02-19T21:00:41.159Z,78.40
2019-02-19T21:03:26.062Z,78.30
2019-02-19T21:06:11.670Z,78.30
2019-02-19T21:08:56.959Z,78.20
2019-02-19T21:11:42.204Z,78.10
2019-02-19T21:14:27.813Z,78.10
2019-02-19T21:17:12.784Z,78.70
2019-02-19T21:19:58.166Z,78.80
2019-02-19T21:22:42.979Z,78.70
2019-02-19T21:25:30.995Z,78.60
2019-02-19T21:28:18.167Z,78.90
2019-02-19T21:31:03.748Z,78.80
2019-02-19T21:33:50.646Z,78.60
2019-02-19T21:36:37.567Z,78.80
2019-02-19T21:39:23.628Z,78.60
2019-02-19T21:42:08.855Z,78.50
2019-02-19T21:44:54.000Z,78.40
2019-02-19T21:47:39.711Z,78.30
2019-02-19T21:50:25.221Z,78.30
2019-02-19T21:53:10.428Z,78.20
2019-02-19T21:55:56.581Z,78.10
2019-02-19T21:58:41.876Z,78.00
2019-02-19T22:01:30.302Z,78.00
2019-02-19T22:04:18.717Z,77.80
2019-02-19T22:07:08.008Z,78.10
2019-02-19T22:09:55.454Z,77.90
2019-02-19T22:12:40.717Z,77.80
2019-02-19T22:15:25.960Z,77.80
2019-02-19T22:18:11.082Z,77.60
2019-02-19T22:20:58.245Z,77.70
2019-02-19T22:23:45.727Z,77.70
2019-02-19T22:26:33.044Z,77.70
2019-02-19T22:29:18.141Z,77.70
2019-02-19T22:32:06.023Z,77.70
2019-02-19T22:34:51.173Z,77.60
2019-02-19T22:37:36.671Z,77.40
2019-02-19T22:40:22.043Z,77.10
2019-02-19T22:43:09.113Z,76.80
2019-02-19T22:45:56.889Z,76.50
2019-02-19T22:48:41.917Z,76.30
2019-02-19T22:51:27.215Z,75.80
2019-02-19T22:54:16.958Z,75.50
2019-02-19T22:57:02.334Z,75.50
2019-02-19T22:59:47.556Z,75.40
2019-02-19T23:02:32.964Z,75.40
2019-02-19T23:05:18.050Z,75.50
2019-02-19T23:08:05.447Z,75.50
2019-02-19T23:10:52.289Z,76.40
2019-02-19T23:13:38.607Z,75.80
2019-02-19T23:16:24.358Z,75.70
2019-02-19T23:19:09.627Z,75.90
2019-02-19T23:21:55.036Z,76.10
2019-02-19T23:24:40.423Z,76.30
2019-02-19T23:27:25.365Z,76.30
2019-02-19T23:30:10.507Z,76.50
2019-02-19T23:32:55.652Z,76.90
2019-02-19T23:35:50.373Z,76.80
2019-02-19T23:38:35.627Z,76.90
2019-02-19T23:41:21.003Z,77.00
2019-02-19T23:44:06.083Z,77.20
2019-02-19T23:46:52.332Z,77.20
2019-02-19T23:49:37.394Z,77.40
2019-02-19T23:52:30.344Z,77.20
2019-02-19T23:55:09.589Z,77.30
2019-02-19T23:57:55.921Z,77.60
